Time,TemperatureF,DewpointF,PressureIn,WindDirection,WindDirectionDegrees,WindSpeedMPH,WindSpeedGustMPH,Humidity,HourlyPrecipIn,Conditions,Clouds,dailyrainin,SoftwareType,DateUTC
2013-05-07 00:00:00,46.8,45.2,29.87,ESE,122,0.0,0.0,94,0.00,,,0.12,Wunderground v.1.15,2013-05-07 04:00:00,
2013-05-07 00:05:00,46.7,45.1,29.87,ESE,122,0.0,0.0,94,0.00,,,0.00,Wunderground v.1.15,2013-05-07 04:05:00,
2013-05-07 00:10:00,46.7,45.3,29.86,ESE,122,0.0,0.0,95,0.00,,,0.00,Wunderground v.1.15,2013-05-07 04:10:00,
2013-05-07 00:15:00,46.6,45.2,29.87,ESE,123,0.0,0.0,95,0.00,,,0.00,Wunderground v.1.15,2013-05-07 04:15:00,
2013-05-07 00:20:00,46.6,45.2,29.86,ESE,123,0.0,0.0,95,0.00,,,0.00,Wunderground v.1.15,2013-05-07 04:20:00,
2013-05-07 00:25:00,46.6,45.2,29.87,ESE,123,0.0,0.0,95,0.00,,,0.00,Wunderground v.1.15,2013-05-07 04:25:00,
2013-05-07 00:30:00,46.6,45.2,29.86,ESE,122,0.0,0.0,95,0.00,,,0.00,Wunderground v.1.15,2013-05-07 04:30:00,
2013-05-07 00:35:00,46.7,45.3,29.86,ESE,123,0.0,0.0,95,0.00,,,0.00,Wunderground v.1.15,2013-05-07 04:35:00,
2013-05-07 00:40:00,46.6,45.2,29.86,ESE,123,0.0,0.0,95,0.00,,,0.00,Wunderground v.1.15,2013-05-07 04:40:00,
2013-05-07 00:45:00,46.6,45.2,29.86,ESE,123,0.0,0.0,95,0.00,,,0.00,Wunderground v.1.15,2013-05-07 04:45:00,
2013-05-07 00:50:00,46.5,45.1,29.86,ESE,123,0.0,0.0,95,0.00,,,0.00,Wunderground v.1.15,2013-05-07 04:50:00,
2013-05-07 00:55:00,46.5,45.1,29.86,ESE,123,0.0,0.0,95,0.00,,,0.00,Wunderground v.1.15,2013-05-07 04:55:00,
2013-05-07 01:00:00,46.4,45.0,29.86,ESE,123,0.0,0.0,95,0.00,,,0.00,Wunderground v.1.15,2013-05-07 05:00:00,
2013-05-07 01:05:00,46.5,45.1,29.86,ESE,122,0.0,0.0,95,0.00,,,0.00,Wunderground v.1.15,2013-05-07 05:05:00,
2013-05-07 01:10:00,46.5,45.1,29.86,ESE,122,0.0,0.0,95,0.00,,,0.00,Wunderground v.1.15,2013-05-07 05:10:00,
2013-05-07 01:15:00,46.5,45.1,29.85,ESE,123,0.0,0.0,95,0.00,,,0.00,Wunderground v.1.15,2013-05-07 05:15:00,
2013-05-07 01:20:00,46.5,45.1,29.85,ESE,122,0.0,0.0,95,0.00,,,0.00,Wunderground v.1.15,2013-05-07 05:20:00,
2013-05-07 01:25:00,46.5,45.1,29.85,ESE,123,0.0,0.0,95,0.00,,,0.00,Wunderground v.1.15,2013-05-07 05:25:00,
2013-05-07 01:30:00,46.5,45.4,29.85,ESE,123,0.0,0.0,96,0.00,,,0.00,Wunderground v.1.15,2013-05-07 05:30:00,
2013-05-07 01:35:00,46.5,45.4,29.85,ESE,122,0.0,0.0,96,0.00,,,0.00,Wunderground v.1.15,2013-05-07 05:35:00,
2013-05-07 01:40:00,46.5,45.4,29.85,ESE,123,0.0,0.0,96,0.00,,,0.00,Wunderground v.1.15,2013-05-07 05:40:00,
2013-05-07 01:45:00,46.5,45.4,29.85,ESE,122,0.0,0.0,96,0.00,,,0.00,Wunderground v.1.15,2013-05-07 05:45:00,
2013-05-07 01:50:00,46.5,45.4,29.85,ESE,123,0.0,0.0,96,0.00,,,0.00,Wunderground v.1.15,2013-05-07 05:50:00,
2013-05-07 01:55:00,46.5,45.4,29.85,ESE,123,0.0,0.0,96,0.00,,,0.00,Wunderground v.1.15,2013-05-07 05:55:00,
2013-05-07 02:00:00,46.5,45.4,29.85,ESE,123,0.0,0.0,96,0.00,,,0.00,Wunderground v.1.15,2013-05-07 06:00:00,
2013-05-07 02:05:00,46.5,45.4,29.85,ESE,123,0.0,0.0,96,0.00,,,0.00,Wunderground v.1.15,2013-05-07 06:05:00,
2013-05-07 02:15:00,46.4,45.3,29.85,ESE,122,0.0,0.0,96,0.00,,,0.01,Wunderground v.1.15,2013-05-07 06:15:00,
2013-05-07 02:20:00,46.5,45.7,29.85,ESE,123,0.0,0.0,97,0.00,,,0.01,Wunderground v.1.15,2013-05-07 06:20:00,
2013-05-07 02:25:00,46.5,45.7,29.85,ESE,122,0.0,0.0,97,0.00,,,0.01,Wunderground v.1.15,2013-05-07 06:25:00,
2013-05-07 02:30:00,46.5,45.7,29.85,ESE,123,0.0,0.0,97,0.00,,,0.01,Wunderground v.1.15,2013-05-07 06:30:00,
2013-05-07 02:35:00,46.5,45.7,29.84,ESE,122,0.0,0.0,97,0.00,,,0.01,Wunderground v.1.15,2013-05-07 06:35:00,
2013-05-07 02:45:00,46.4,45.6,29.84,ESE,123,0.0,0.0,97,0.00,,,0.01,Wunderground v.1.15,2013-05-07 06:45:00,
2013-05-07 02:50:00,46.4,45.6,29.84,ESE,122,0.0,0.0,97,0.00,,,0.01,Wunderground v.1.15,2013-05-07 06:50:00,
2013-05-07 02:55:00,46.4,45.6,29.84,ESE,123,0.0,0.0,97,0.00,,,0.01,Wunderground v.1.15,2013-05-07 06:55:00,
2013-05-07 03:00:00,46.4,45.6,29.84,ESE,122,0.0,0.0,97,0.00,,,0.01,Wunderground v.1.15,2013-05-07 07:00:00,
2013-05-07 03:05:00,46.4,45.6,29.84,ESE,123,0.0,0.0,97,0.00,,,0.01,Wunderground v.1.15,2013-05-07 07:05:00,
2013-05-07 03:10:00,46.4,45.6,29.84,ESE,122,0.0,0.0,97,0.00,,,0.01,Wunderground v.1.15,2013-05-07 07:10:00,
2013-05-07 03:20:00,46.5,45.7,29.84,ESE,122,0.0,0.0,97,0.00,,,0.01,Wunderground v.1.15,2013-05-07 07:20:00,
2013-05-07 03:25:00,46.5,45.7,29.84,ESE,123,0.0,0.0,97,0.00,,,0.01,Wunderground v.1.15,2013-05-07 07:25:00,
2013-05-07 03:30:00,46.5,45.7,29.84,ESE,123,0.0,0.0,97,0.00,,,0.01,Wunderground v.1.15,2013-05-07 07:30:00,
2013-05-07 03:35:00,46.4,45.6,29.84,ESE,122,0.0,0.0,97,0.00,,,0.01,Wunderground v.1.15,2013-05-07 07:35:00,
2013-05-07 03:40:00,46.4,45.6,29.84,ESE,123,0.0,0.0,97,0.00,,,0.01,Wunderground v.1.15,2013-05-07 07:40:00,
2013-05-07 03:45:00,46.4,45.6,29.83,ESE,123,0.0,0.0,97,0.00,,,0.01,Wunderground v.1.15,2013-05-07 07:45:00,
2013-05-07 03:50:00,46.4,45.6,29.84,ESE,122,0.0,0.0,97,0.00,,,0.01,Wunderground v.1.15,2013-05-07 07:50:00,
2013-05-07 03:55:00,46.5,45.7,29.84,ESE,123,0.0,0.0,97,0.00,,,0.01,Wunderground v.1.15,2013-05-07 07:55:00,
2013-05-07 04:00:00,46.5,45.7,29.83,ESE,122,0.0,0.0,97,0.00,,,0.01,Wunderground v.1.15,2013-05-07 08:00:00,
2013-05-07 04:05:00,46.5,45.7,29.83,ESE,122,0.0,0.0,97,0.00,,,0.01,Wunderground v.1.15,2013-05-07 08:05:00,
2013-05-07 04:10:00,46.5,45.7,29.84,ESE,123,0.0,0.0,97,0.00,,,0.01,Wunderground v.1.15,2013-05-07 08:10:00,
2013-05-07 04:15:00,46.5,45.7,29.83,ESE,122,0.0,0.0,97,0.00,,,0.01,Wunderground v.1.15,2013-05-07 08:15:00,
2013-05-07 04:25:00,46.5,45.7,29.83,ESE,123,0.0,0.0,97,0.00,,,0.01,Wunderground v.1.15,2013-05-07 08:25:00,
2013-05-07 04:30:00,46.6,45.8,29.83,ESE,123,0.0,0.0,97,0.00,,,0.01,Wunderground v.1.15,2013-05-07 08:30:00,
2013-05-07 04:35:00,46.7,45.9,29.83,ESE,123,0.0,0.0,97,0.00,,,0.01,Wunderground v.1.15,2013-05-07 08:35:00,
2013-05-07 04:40:00,46.7,45.9,29.84,ESE,122,0.0,0.0,97,0.00,,,0.01,Wunderground v.1.15,2013-05-07 08:40:00,
2013-05-07 04:45:00,46.7,45.9,29.83,ESE,123,0.0,0.0,97,0.00,,,0.01,Wunderground v.1.15,2013-05-07 08:45:00,
2013-05-07 04:50:00,46.7,45.9,29.83,ESE,123,0.0,0.0,97,0.00,,,0.01,Wunderground v.1.15,2013-05-07 08:50:00,
2013-05-07 04:55:00,46.7,45.9,29.83,ESE,123,0.0,0.0,97,0.00,,,0.01,Wunderground v.1.15,2013-05-07 08:55:00,
2013-05-07 05:00:00,46.6,45.8,29.83,ESE,122,0.0,0.0,97,0.00,,,0.01,Wunderground v.1.15,2013-05-07 09:00:00,
2013-05-07 05:05:00,46.5,45.7,29.83,ESE,123,0.0,0.0,97,0.00,,,0.01,Wunderground v.1.15,2013-05-07 09:05:00,
2013-05-07 05:10:00,46.4,45.6,29.84,ESE,122,0.0,0.0,97,0.00,,,0.01,Wunderground v.1.15,2013-05-07 09:10:00,
2013-05-07 05:15:00,46.3,45.5,29.84,ESE,123,0.0,0.0,97,0.00,,,0.01,Wunderground v.1.15,2013-05-07 09:15:00,
2013-05-07 05:20:00,46.3,45.5,29.84,ESE,122,0.0,0.0,97,0.00,,,0.01,Wunderground v.1.15,2013-05-07 09:20:00,
2013-05-07 05:25:00,46.4,45.6,29.84,ESE,123,0.0,0.0,97,0.00,,,0.01,Wunderground v.1.15,2013-05-07 09:25:00,
2013-05-07 05:35:00,46.4,45.6,29.84,ESE,122,0.0,0.0,97,0.00,,,0.01,Wunderground v.1.15,2013-05-07 09:35:00,
2013-05-07 05:40:00,46.3,45.5,29.84,ESE,123,0.0,0.0,97,0.00,,,0.01,Wunderground v.1.15,2013-05-07 09:40:00,
2013-05-07 05:45:00,46.3,45.5,29.83,ESE,123,0.0,0.0,97,0.00,,,0.01,Wunderground v.1.15,2013-05-07 09:45:00,
2013-05-07 05:50:00,46.1,45.3,29.83,ESE,123,0.0,0.0,97,0.00,,,0.01,Wunderground v.1.15,2013-05-07 09:50:00,
2013-05-07 05:55:00,45.9,45.1,29.84,ESE,123,0.0,0.0,97,0.00,,,0.01,Wunderground v.1.15,2013-05-07 09:55:00,
2013-05-07 06:00:00,45.8,45.0,29.84,ESE,123,0.0,0.0,97,0.00,,,0.01,Wunderground v.1.15,2013-05-07 10:00:00,
2013-05-07 06:05:00,45.8,45.0,29.84,WSW,250,1.0,2.0,97,0.00,,,0.01,Wunderground v.1.15,2013-05-07 10:05:00,
2013-05-07 06:10:00,45.7,44.9,29.84,WSW,250,1.0,1.0,97,0.00,,,0.01,Wunderground v.1.15,2013-05-07 10:10:00,
2013-05-07 06:15:00,45.5,44.7,29.85,WSW,249,1.0,1.0,97,0.00,,,0.01,Wunderground v.1.15,2013-05-07 10:15:00,
2013-05-07 06:20:00,45.2,44.4,29.85,WSW,250,0.0,0.0,97,0.00,,,0.01,Wunderground v.1.15,2013-05-07 10:20:00,
2013-05-07 06:25:00,45.0,44.2,29.85,WSW,249,0.0,0.0,97,0.00,,,0.01,Wunderground v.1.15,2013-05-07 10:25:00,
2013-05-07 06:30:00,45.0,44.2,29.85,WSW,250,0.0,0.0,97,0.00,,,0.01,Wunderground v.1.15,2013-05-07 10:30:00,
2013-05-07 06:35:00,45.3,44.5,29.85,WSW,250,0.0,0.0,97,0.00,,,0.01,Wunderground v.1.15,2013-05-07 10:35:00,
2013-05-07 06:40:00,45.3,44.5,29.86,WSW,250,0.0,0.0,97,0.00,,,0.01,Wunderground v.1.15,2013-05-07 10:40:00,
2013-05-07 06:45:00,45.4,44.6,29.86,WSW,249,0.0,0.0,97,0.00,,,0.01,Wunderground v.1.15,2013-05-07 10:45:00,
2013-05-07 06:50:00,45.4,44.6,29.86,WSW,249,0.0,0.0,97,0.00,,,0.01,Wunderground v.1.15,2013-05-07 10:50:00,
2013-05-07 06:55:00,45.0,44.2,29.87,WSW,249,0.0,0.0,97,0.00,,,0.01,Wunderground v.1.15,2013-05-07 10:55:00,
2013-05-07 07:00:00,44.7,43.9,29.87,WSW,249,0.0,0.0,97,0.00,,,0.01,Wunderground v.1.15,2013-05-07 11:00:00,
2013-05-07 07:05:00,44.6,43.8,29.87,WSW,249,0.0,0.0,97,0.00,,,0.01,Wunderground v.1.15,2013-05-07 11:05:00,
2013-05-07 07:10:00,44.6,43.8,29.87,WSW,249,0.0,0.0,97,0.00,,,0.01,Wunderground v.1.15,2013-05-07 11:10:00,
2013-05-07 07:15:00,44.7,43.9,29.88,WSW,249,0.0,0.0,97,0.00,,,0.01,Wunderground v.1.15,2013-05-07 11:15:00,
2013-05-07 07:20:00,44.9,44.1,29.88,WSW,249,0.0,0.0,97,0.00,,,0.01,Wunderground v.1.15,2013-05-07 11:20:00,
2013-05-07 07:25:00,45.0,44.2,29.88,WSW,249,0.0,0.0,97,0.00,,,0.01,Wunderground v.1.15,2013-05-07 11:25:00,
2013-05-07 07:30:00,45.1,44.3,29.88,WSW,249,0.0,0.0,97,0.00,,,0.01,Wunderground v.1.15,2013-05-07 11:30:00,
2013-05-07 07:35:00,45.2,44.4,29.88,WSW,249,0.0,0.0,97,0.00,,,0.01,Wunderground v.1.15,2013-05-07 11:35:00,
2013-05-07 07:40:00,45.4,44.6,29.88,WSW,249,0.0,0.0,97,0.00,,,0.01,Wunderground v.1.15,2013-05-07 11:40:00,
2013-05-07 07:45:00,45.6,45.1,29.89,WSW,249,0.0,0.0,98,0.00,,,0.01,Wunderground v.1.15,2013-05-07 11:45:00,
2013-05-07 07:50:00,45.9,45.4,29.88,WSW,249,0.0,0.0,98,0.00,,,0.01,Wunderground v.1.15,2013-05-07 11:50:00,
2013-05-07 07:55:00,46.2,45.7,29.89,WSW,249,0.0,0.0,98,0.00,,,0.01,Wunderground v.1.15,2013-05-07 11:55:00,
2013-05-07 08:00:00,46.4,45.9,29.89,WSW,249,0.0,0.0,98,0.00,,,0.01,Wunderground v.1.15,2013-05-07 12:00:00,
2013-05-07 08:05:00,46.6,46.1,29.89,WSW,249,0.0,1.0,98,0.00,,,0.01,Wunderground v.1.15,2013-05-07 12:05:00,
2013-05-07 08:15:00,46.9,46.4,29.89,WSW,249,0.0,0.0,98,0.00,,,0.01,Wunderground v.1.15,2013-05-07 12:15:00,
2013-05-07 08:20:00,47.0,46.5,29.89,WSW,249,0.0,0.0,98,0.00,,,0.01,Wunderground v.1.15,2013-05-07 12:20:00,
2013-05-07 08:25:00,47.2,46.7,29.89,WSW,249,0.0,0.0,98,0.00,,,0.01,Wunderground v.1.15,2013-05-07 12:25:00,
2013-05-07 08:30:00,47.5,47.0,29.89,WSW,249,0.0,0.0,98,0.00,,,0.01,Wunderground v.1.15,2013-05-07 12:30:00,
2013-05-07 08:35:00,47.5,47.0,29.89,WSW,249,0.0,0.0,98,0.00,,,0.01,Wunderground v.1.15,2013-05-07 12:35:00,
2013-05-07 08:40:00,47.9,47.4,29.90,WSW,249,0.0,0.0,98,0.00,,,0.01,Wunderground v.1.15,2013-05-07 12:40:00,
2013-05-07 08:45:00,48.2,47.7,29.90,WSW,249,0.0,0.0,98,0.00,,,0.01,Wunderground v.1.15,2013-05-07 12:45:00,
2013-05-07 08:50:00,48.7,48.2,29.90,WSW,249,0.0,3.0,98,0.00,,,0.01,Wunderground v.1.15,2013-05-07 12:50:00,
2013-05-07 08:55:00,48.9,48.4,29.90,WSW,249,0.0,3.0,98,0.00,,,0.01,Wunderground v.1.15,2013-05-07 12:55:00,
2013-05-07 09:00:00,49.4,48.9,29.90,WSW,249,0.0,0.0,98,0.00,,,0.01,Wunderground v.1.15,2013-05-07 13:00:00,
2013-05-07 09:05:00,49.7,49.2,29.90,WSW,249,0.0,0.0,98,0.00,,,0.01,Wunderground v.1.15,2013-05-07 13:05:00,
2013-05-07 09:15:00,49.9,49.4,29.90,West,261,0.0,0.0,98,0.00,,,0.01,Wunderground v.1.15,2013-05-07 13:15:00,
2013-05-07 09:20:00,50.2,49.7,29.90,West,261,0.0,0.0,98,0.00,,,0.01,Wunderground v.1.15,2013-05-07 13:20:00,
2013-05-07 09:25:00,50.4,49.9,29.90,West,261,0.0,0.0,98,0.00,,,0.01,Wunderground v.1.15,2013-05-07 13:25:00,
2013-05-07 09:30:00,50.7,49.9,29.90,West,261,0.0,0.0,97,0.00,,,0.01,Wunderground v.1.15,2013-05-07 13:30:00,
2013-05-07 09:35:00,51.3,50.5,29.90,West,261,0.0,0.0,97,0.00,,,0.01,Wunderground v.1.15,2013-05-07 13:35:00,
2013-05-07 09:40:00,51.7,50.9,29.90,West,261,0.0,0.0,97,0.00,,,0.01,Wunderground v.1.15,2013-05-07 13:40:00,
2013-05-07 09:45:00,52.3,51.2,29.91,West,261,0.0,0.0,96,0.00,,,0.01,Wunderground v.1.15,2013-05-07 13:45:00,
2013-05-07 09:50:00,52.2,50.2,29.91,West,261,0.0,0.0,93,0.00,,,0.01,Wunderground v.1.15,2013-05-07 13:50:00,
2013-05-07 09:55:00,51.8,49.5,29.91,West,261,0.0,0.0,92,0.00,,,0.01,Wunderground v.1.15,2013-05-07 13:55:00,
2013-05-07 10:00:00,52.3,50.6,29.91,West,261,0.0,0.0,94,0.00,,,0.01,Wunderground v.1.15,2013-05-07 14:00:00,
2013-05-07 10:05:00,53.1,51.4,29.91,West,261,0.0,0.0,94,0.00,,,0.01,Wunderground v.1.15,2013-05-07 14:05:00,
2013-05-07 10:10:00,53.5,50.6,29.91,West,261,0.0,0.0,90,0.00,,,0.01,Wunderground v.1.15,2013-05-07 14:10:00,
2013-05-07 10:15:00,53.8,50.9,29.91,West,261,0.0,0.0,90,0.00,,,0.01,Wunderground v.1.15,2013-05-07 14:15:00,
2013-05-07 10:20:00,53.9,51.0,29.91,West,261,0.0,0.0,90,0.00,,,0.01,Wunderground v.1.15,2013-05-07 14:20:00,
2013-05-07 10:25:00,54.1,50.3,29.91,West,272,0.0,3.0,87,0.00,,,0.01,Wunderground v.1.15,2013-05-07 14:25:00,
2013-05-07 10:30:00,54.4,50.6,29.91,WSW,258,1.0,1.0,87,0.00,,,0.01,Wunderground v.1.15,2013-05-07 14:30:00,
2013-05-07 10:35:00,55.4,51.9,29.90,WSW,258,0.0,1.0,88,0.00,,,0.01,Wunderground v.1.15,2013-05-07 14:35:00,
2013-05-07 10:40:00,56.4,52.9,29.90,WSW,257,0.0,0.0,88,0.00,,,0.01,Wunderground v.1.15,2013-05-07 14:40:00,
2013-05-07 10:45:00,57.1,52.6,29.90,WSW,258,0.0,0.0,85,0.00,,,0.01,Wunderground v.1.15,2013-05-07 14:45:00,
2013-05-07 10:50:00,57.3,50.8,29.90,WSW,257,0.0,0.0,79,0.00,,,0.01,Wunderground v.1.15,2013-05-07 14:50:00,
2013-05-07 10:55:00,57.7,53.2,29.90,WSW,258,0.0,1.0,85,0.00,,,0.01,Wunderground v.1.15,2013-05-07 14:55:00,
2013-05-07 11:00:00,58.2,52.4,29.90,West,259,0.0,2.0,81,0.00,,,0.01,Wunderground v.1.15,2013-05-07 15:00:00,
2013-05-07 11:05:00,58.3,53.2,29.90,West,259,1.0,2.0,83,0.00,,,0.01,Wunderground v.1.15,2013-05-07 15:05:00,
2013-05-07 11:10:00,58.2,49.6,29.90,WSW,237,1.0,1.0,73,0.00,,,0.01,Wunderground v.1.15,2013-05-07 15:10:00,
2013-05-07 11:15:00,57.8,50.6,29.90,West,265,1.0,1.0,77,0.00,,,0.01,Wunderground v.1.15,2013-05-07 15:15:00,
2013-05-07 11:20:00,58.4,52.6,29.90,West,265,0.0,0.0,81,0.00,,,0.01,Wunderground v.1.15,2013-05-07 15:20:00,
2013-05-07 11:25:00,59.4,53.2,29.90,West,259,1.0,1.0,80,0.00,,,0.01,Wunderground v.1.15,2013-05-07 15:25:00,
2013-05-07 11:30:00,60.0,53.5,29.90,West,259,1.0,1.0,79,0.00,,,0.01,Wunderground v.1.15,2013-05-07 15:30:00,
2013-05-07 11:35:00,59.7,51.4,29.90,West,264,0.0,1.0,74,0.00,,,0.01,Wunderground v.1.15,2013-05-07 15:35:00,
2013-05-07 11:40:00,59.4,51.8,29.90,West,263,0.0,0.0,76,0.00,,,0.01,Wunderground v.1.15,2013-05-07 15:40:00,
2013-05-07 11:45:00,59.9,52.3,29.90,South,177,1.0,1.0,76,0.00,,,0.01,Wunderground v.1.15,2013-05-07 15:45:00,
2013-05-07 11:50:00,61.2,53.6,29.90,South,179,0.0,0.0,76,0.00,,,0.01,Wunderground v.1.15,2013-05-07 15:50:00,
2013-05-07 11:55:00,62.4,52.9,29.90,South,180,0.0,1.0,71,0.00,,,0.01,Wunderground v.1.15,2013-05-07 15:55:00,
2013-05-07 12:05:00,63.6,54.0,29.89,WSW,237,0.0,0.0,71,0.00,,,0.01,Wunderground v.1.15,2013-05-07 16:05:00,
2013-05-07 12:15:00,64.5,54.5,29.89,WSW,245,0.0,0.0,70,0.00,,,0.01,Wunderground v.1.15,2013-05-07 16:15:00,
2013-05-07 12:20:00,65.5,54.2,29.89,WSW,249,0.0,0.0,67,0.00,,,0.01,Wunderground v.1.15,2013-05-07 16:20:00,
2013-05-07 12:25:00,66.0,53.9,29.89,WSW,249,0.0,0.0,65,0.00,,,0.01,Wunderground v.1.15,2013-05-07 16:25:00,
2013-05-07 12:35:00,65.8,54.5,29.88,WSW,249,0.0,0.0,67,0.00,,,0.01,Wunderground v.1.15,2013-05-07 16:35:00,
2013-05-07 12:40:00,64.4,51.1,29.88,SW,230,1.0,1.0,62,0.00,,,0.01,Wunderground v.1.15,2013-05-07 16:40:00,
2013-05-07 12:45:00,64.9,52.0,29.88,West,263,1.0,4.0,63,0.00,,,0.01,Wunderground v.1.15,2013-05-07 16:45:00,
2013-05-07 12:50:00,65.7,50.5,29.88,West,259,1.0,2.0,58,0.00,,,0.01,Wunderground v.1.15,2013-05-07 16:50:00,
2013-05-07 12:55:00,65.4,51.1,29.88,West,262,1.0,2.0,60,0.00,,,0.01,Wunderground v.1.15,2013-05-07 16:55:00,
2013-05-07 13:00:00,65.0,49.9,29.88,West,261,0.0,2.0,58,0.00,,,0.01,Wunderground v.1.15,2013-05-07 17:00:00,
2013-05-07 13:05:00,63.9,49.7,29.88,West,261,0.0,2.0,60,0.00,,,0.01,Wunderground v.1.15,2013-05-07 17:05:00,
2013-05-07 13:10:00,63.5,53.1,29.88,West,261,0.0,3.0,69,0.00,,,0.01,Wunderground v.1.15,2013-05-07 17:10:00,
2013-05-07 13:15:00,63.5,50.2,29.88,WSW,250,1.0,3.0,62,0.00,,,0.01,Wunderground v.1.15,2013-05-07 17:15:00,
2013-05-07 13:20:00,63.5,51.5,29.88,WSW,251,1.0,1.0,65,0.00,,,0.01,Wunderground v.1.15,2013-05-07 17:20:00,
2013-05-07 13:25:00,63.3,50.9,29.87,WSW,250,0.0,1.0,64,0.00,,,0.01,Wunderground v.1.15,2013-05-07 17:25:00,
2013-05-07 13:35:00,64.4,48.4,29.87,WSW,242,1.0,3.0,56,0.00,,,0.01,Wunderground v.1.15,2013-05-07 17:35:00,
2013-05-07 13:40:00,65.7,54.4,29.87,WSW,241,1.0,1.0,67,0.00,,,0.01,Wunderground v.1.15,2013-05-07 17:40:00,
2013-05-07 13:45:00,66.7,53.3,29.88,WSW,242,0.0,1.0,62,0.00,,,0.01,Wunderground v.1.15,2013-05-07 17:45:00,
2013-05-07 13:50:00,66.7,53.7,29.88,WSW,242,0.0,3.0,63,0.00,,,0.01,Wunderground v.1.15,2013-05-07 17:50:00,
2013-05-07 13:55:00,66.1,52.3,29.88,WSW,242,0.0,3.0,61,0.00,,,0.01,Wunderground v.1.15,2013-05-07 17:55:00,
2013-05-07 14:00:00,65.4,51.6,29.88,WSW,242,0.0,0.0,61,0.00,,,0.01,Wunderground v.1.15,2013-05-07 18:00:00,
2013-05-07 14:05:00,65.0,52.5,29.88,WSW,241,0.0,0.0,64,0.00,,,0.01,Wunderground v.1.15,2013-05-07 18:05:00,
2013-05-07 14:10:00,64.9,53.3,29.88,WNW,285,0.0,0.0,66,0.00,,,0.01,Wunderground v.1.15,2013-05-07 18:10:00,
2013-05-07 14:15:00,64.9,50.7,29.88,West,275,0.0,0.0,60,0.00,,,0.01,Wunderground v.1.15,2013-05-07 18:15:00,
2013-05-07 14:20:00,64.6,49.9,29.87,West,272,1.0,1.0,59,0.00,,,0.01,Wunderground v.1.15,2013-05-07 18:20:00,
2013-05-07 14:25:00,66.1,54.4,29.87,West,269,1.0,3.0,66,0.00,,,0.01,Wunderground v.1.15,2013-05-07 18:25:00,
2013-05-07 14:35:00,66.2,53.2,29.87,WSW,237,1.0,1.0,63,0.00,,,0.01,Wunderground v.1.15,2013-05-07 18:35:00,
2013-05-07 14:40:00,65.7,52.8,29.87,WSW,237,0.0,0.0,63,0.00,,,0.01,Wunderground v.1.15,2013-05-07 18:40:00,
2013-05-07 14:45:00,65.2,52.7,29.87,WSW,239,0.0,0.0,64,0.00,,,0.01,Wunderground v.1.15,2013-05-07 18:45:00,
2013-05-07 14:50:00,65.2,53.1,29.87,WSW,238,0.0,0.0,65,0.00,,,0.01,Wunderground v.1.15,2013-05-07 18:50:00,
2013-05-07 14:55:00,66.0,54.7,29.86,WSW,239,0.0,2.0,67,0.00,,,0.01,Wunderground v.1.15,2013-05-07 18:55:00,
2013-05-07 15:00:00,67.4,53.0,29.86,WSW,241,0.0,1.0,60,0.00,,,0.01,Wunderground v.1.15,2013-05-07 19:00:00,
2013-05-07 15:05:00,67.8,52.5,29.86,WSW,241,0.0,1.0,58,0.00,,,0.01,Wunderground v.1.15,2013-05-07 19:05:00,
2013-05-07 15:10:00,67.7,54.2,29.86,NNE,28,0.0,0.0,62,0.00,,,0.01,Wunderground v.1.15,2013-05-07 19:10:00,
2013-05-07 15:15:00,68.5,53.1,29.86,NNE,24,0.0,0.0,58,0.00,,,0.01,Wunderground v.1.15,2013-05-07 19:15:00,
2013-05-07 15:20:00,68.6,53.7,29.85,NNE,23,0.0,0.0,59,0.00,,,0.01,Wunderground v.1.15,2013-05-07 19:20:00,
2013-05-07 15:25:00,68.6,52.8,29.85,NNE,22,0.0,1.0,57,0.00,,,0.01,Wunderground v.1.15,2013-05-07 19:25:00,
2013-05-07 15:30:00,69.2,54.7,29.85,NNE,22,0.0,0.0,60,0.00,,,0.01,Wunderground v.1.15,2013-05-07 19:30:00,
2013-05-07 15:35:00,69.2,52.8,29.85,NNE,22,0.0,0.0,56,0.00,,,0.01,Wunderground v.1.15,2013-05-07 19:35:00,
2013-05-07 15:40:00,68.7,53.3,29.85,NNE,22,0.0,0.0,58,0.00,,,0.01,Wunderground v.1.15,2013-05-07 19:40:00,
2013-05-07 15:45:00,68.2,52.9,29.85,WNW,286,0.0,0.0,58,0.00,,,0.01,Wunderground v.1.15,2013-05-07 19:45:00,
2013-05-07 15:50:00,67.7,51.4,29.85,WNW,286,0.0,0.0,56,0.00,,,0.01,Wunderground v.1.15,2013-05-07 19:50:00,
2013-05-07 15:55:00,67.7,53.8,29.84,WNW,286,0.0,0.0,61,0.00,,,0.01,Wunderground v.1.15,2013-05-07 19:55:00,
2013-05-07 16:00:00,68.1,54.6,29.84,WNW,286,0.0,0.0,62,0.00,,,0.01,Wunderground v.1.15,2013-05-07 20:00:00,
2013-05-07 16:05:00,68.3,52.0,29.84,WNW,287,0.0,0.0,56,0.00,,,0.01,Wunderground v.1.15,2013-05-07 20:05:00,
2013-05-07 16:10:00,67.7,52.4,29.84,WNW,286,0.0,0.0,58,0.00,,,0.01,Wunderground v.1.15,2013-05-07 20:10:00,
2013-05-07 16:15:00,67.1,52.3,29.84,WNW,287,0.0,0.0,59,0.00,,,0.01,Wunderground v.1.15,2013-05-07 20:15:00,
2013-05-07 16:20:00,66.2,51.0,29.84,WNW,287,0.0,0.0,58,0.00,,,0.01,Wunderground v.1.15,2013-05-07 20:20:00,
2013-05-07 16:25:00,65.5,51.2,29.84,WNW,287,0.0,0.0,60,0.00,,,0.01,Wunderground v.1.15,2013-05-07 20:25:00,
2013-05-07 16:30:00,64.8,50.1,29.84,WNW,287,0.0,0.0,59,0.00,,,0.01,Wunderground v.1.15,2013-05-07 20:30:00,
2013-05-07 16:35:00,64.2,51.8,29.84,WNW,287,0.0,0.0,64,0.00,,,0.01,Wunderground v.1.15,2013-05-07 20:35:00,
2013-05-07 16:40:00,64.3,52.7,29.84,WNW,287,0.0,0.0,66,0.00,,,0.01,Wunderground v.1.15,2013-05-07 20:40:00,
2013-05-07 16:45:00,65.3,51.9,29.84,WSW,252,0.0,1.0,62,0.00,,,0.01,Wunderground v.1.15,2013-05-07 20:45:00,
2013-05-07 16:50:00,65.8,52.0,29.84,WSW,248,0.0,0.0,61,0.00,,,0.01,Wunderground v.1.15,2013-05-07 20:50:00,
2013-05-07 16:55:00,65.5,49.4,29.84,NW,325,0.0,0.0,56,0.00,,,0.01,Wunderground v.1.15,2013-05-07 20:55:00,
2013-05-07 17:00:00,65.1,50.4,29.84,NW,325,0.0,0.0,59,0.00,,,0.01,Wunderground v.1.15,2013-05-07 21:00:00,
2013-05-07 17:05:00,64.9,49.3,29.84,NW,313,0.0,1.0,57,0.00,,,0.01,Wunderground v.1.15,2013-05-07 21:05:00,
2013-05-07 17:10:00,64.7,49.1,29.84,NW,311,0.0,0.0,57,0.00,,,0.01,Wunderground v.1.15,2013-05-07 21:10:00,
2013-05-07 17:15:00,64.4,49.3,29.84,NW,311,0.0,0.0,58,0.00,,,0.01,Wunderground v.1.15,2013-05-07 21:15:00,
2013-05-07 17:20:00,64.2,50.0,29.84,NE,53,0.0,0.0,60,0.00,,,0.01,Wunderground v.1.15,2013-05-07 21:20:00,
2013-05-07 17:25:00,64.1,49.5,29.85,NE,53,0.0,0.0,59,0.00,,,0.01,Wunderground v.1.15,2013-05-07 21:25:00,
2013-05-07 17:30:00,65.1,51.3,29.84,NE,52,0.0,0.0,61,0.00,,,0.01,Wunderground v.1.15,2013-05-07 21:30:00,
2013-05-07 17:35:00,66.6,49.9,29.85,WNW,283,0.0,0.0,55,0.00,,,0.01,Wunderground v.1.15,2013-05-07 21:35:00,
2013-05-07 17:40:00,67.3,48.5,29.84,WNW,283,0.0,0.0,51,0.00,,,0.01,Wunderground v.1.15,2013-05-07 21:40:00,
2013-05-07 17:45:00,68.1,49.8,29.85,WNW,283,0.0,0.0,52,0.00,,,0.01,Wunderground v.1.15,2013-05-07 21:45:00,
2013-05-07 17:50:00,69.2,50.3,29.85,WNW,302,0.0,0.0,51,0.00,,,0.01,Wunderground v.1.15,2013-05-07 21:50:00,
2013-05-07 17:55:00,69.6,50.1,29.85,SSE,155,0.0,0.0,50,0.00,,,0.01,Wunderground v.1.15,2013-05-07 21:55:00,
2013-05-07 18:00:00,69.8,51.4,29.85,SW,217,0.0,1.0,52,0.00,,,0.01,Wunderground v.1.15,2013-05-07 22:00:00,
2013-05-07 18:05:00,69.5,50.6,29.84,WSW,246,0.0,1.0,51,0.00,,,0.01,Wunderground v.1.15,2013-05-07 22:05:00,
2013-05-07 18:15:00,66.8,49.6,29.85,SW,222,1.0,1.0,54,0.00,,,0.01,Wunderground v.1.15,2013-05-07 22:15:00,
2013-05-07 18:20:00,65.6,49.0,29.85,SW,223,0.0,0.0,55,0.00,,,0.01,Wunderground v.1.15,2013-05-07 22:20:00,
2013-05-07 18:25:00,64.3,49.7,29.86,SW,236,0.0,0.0,59,0.00,,,0.01,Wunderground v.1.15,2013-05-07 22:25:00,
2013-05-07 18:30:00,63.6,49.5,29.85,SW,236,0.0,0.0,60,0.00,,,0.01,Wunderground v.1.15,2013-05-07 22:30:00,
2013-05-07 18:35:00,63.0,49.3,29.85,West,269,0.0,0.0,61,0.00,,,0.01,Wunderground v.1.15,2013-05-07 22:35:00,
2013-05-07 18:40:00,62.3,49.1,29.85,West,268,0.0,0.0,62,0.00,,,0.01,Wunderground v.1.15,2013-05-07 22:40:00,
2013-05-07 18:45:00,61.8,49.5,29.85,West,268,0.0,0.0,64,0.00,,,0.01,Wunderground v.1.15,2013-05-07 22:45:00,
2013-05-07 18:50:00,61.3,49.4,29.85,West,268,0.0,0.0,65,0.00,,,0.01,Wunderground v.1.15,2013-05-07 22:50:00,
2013-05-07 18:55:00,60.9,50.3,29.85,West,268,0.0,0.0,68,0.00,,,0.01,Wunderground v.1.15,2013-05-07 22:55:00,
2013-05-07 19:00:00,60.7,50.9,29.86,West,268,0.0,0.0,70,0.00,,,0.01,Wunderground v.1.15,2013-05-07 23:00:00,
2013-05-07 19:05:00,60.6,50.0,29.86,West,269,0.0,0.0,68,0.00,,,0.01,Wunderground v.1.15,2013-05-07 23:05:00,
2013-05-07 19:10:00,60.5,49.9,29.86,West,269,0.0,0.0,68,0.00,,,0.01,Wunderground v.1.15,2013-05-07 23:10:00,
2013-05-07 19:15:00,60.4,50.6,29.86,West,269,0.0,0.0,70,0.00,,,0.01,Wunderground v.1.15,2013-05-07 23:15:00,
2013-05-07 19:20:00,60.3,50.5,29.86,West,268,0.0,0.0,70,0.00,,,0.01,Wunderground v.1.15,2013-05-07 23:20:00,
2013-05-07 19:25:00,60.3,50.9,29.86,West,269,0.0,0.0,71,0.00,,,0.01,Wunderground v.1.15,2013-05-07 23:25:00,
2013-05-07 19:30:00,60.3,51.2,29.86,West,275,0.0,0.0,72,0.00,,,0.01,Wunderground v.1.15,2013-05-07 23:30:00,
2013-05-07 19:35:00,60.2,50.8,29.87,West,275,0.0,0.0,71,0.00,,,0.01,Wunderground v.1.15,2013-05-07 23:35:00,
2013-05-07 19:40:00,59.9,50.8,29.87,West,275,0.0,0.0,72,0.00,,,0.01,Wunderground v.1.15,2013-05-07 23:40:00,
2013-05-07 19:45:00,59.6,50.6,29.87,West,275,0.0,0.0,72,0.00,,,0.01,Wunderground v.1.15,2013-05-07 23:45:00,
2013-05-07 19:50:00,59.1,50.5,29.87,West,275,0.0,0.0,73,0.00,,,0.01,Wunderground v.1.15,2013-05-07 23:50:00,
2013-05-07 19:55:00,59.0,50.7,29.88,West,275,0.0,0.0,74,0.00,,,0.01,Wunderground v.1.15,2013-05-07 23:55:00,
2013-05-07 20:00:00,59.0,51.1,29.88,West,275,0.0,0.0,75,0.00,,,0.01,Wunderground v.1.15,2013-05-08 00:00:00,
2013-05-07 20:05:00,58.6,50.7,29.88,West,275,0.0,0.0,75,0.00,,,0.01,Wunderground v.1.15,2013-05-08 00:05:00,
2013-05-07 20:10:00,58.5,50.6,29.88,West,275,0.0,0.0,75,0.00,,,0.01,Wunderground v.1.15,2013-05-08 00:10:00,
2013-05-07 20:15:00,58.3,50.8,29.88,West,275,0.0,0.0,76,0.00,,,0.01,Wunderground v.1.15,2013-05-08 00:15:00,
2013-05-07 20:20:00,58.1,50.9,29.89,West,275,0.0,0.0,77,0.00,,,0.01,Wunderground v.1.15,2013-05-08 00:20:00,
2013-05-07 20:25:00,58.0,51.2,29.89,West,275,0.0,0.0,78,0.00,,,0.01,Wunderground v.1.15,2013-05-08 00:25:00,
2013-05-07 20:30:00,57.8,51.0,29.89,West,275,0.0,0.0,78,0.00,,,0.01,Wunderground v.1.15,2013-05-08 00:30:00,
2013-05-07 20:35:00,57.6,51.1,29.89,West,275,0.0,0.0,79,0.00,,,0.01,Wunderground v.1.15,2013-05-08 00:35:00,
2013-05-07 20:40:00,57.4,50.9,29.89,West,275,0.0,0.0,79,0.00,,,0.01,Wunderground v.1.15,2013-05-08 00:40:00,
2013-05-07 20:45:00,57.2,51.4,29.89,West,275,0.0,0.0,81,0.00,,,0.01,Wunderground v.1.15,2013-05-08 00:45:00,
2013-05-07 20:50:00,56.9,51.1,29.89,West,275,0.0,0.0,81,0.00,,,0.01,Wunderground v.1.15,2013-05-08 00:50:00,
2013-05-07 20:55:00,56.7,50.6,29.89,West,275,0.0,0.0,80,0.00,,,0.01,Wunderground v.1.15,2013-05-08 00:55:00,
2013-05-07 21:00:00,56.4,50.6,29.89,West,275,0.0,0.0,81,0.00,,,0.01,Wunderground v.1.15,2013-05-08 01:00:00,
2013-05-07 21:05:00,56.2,50.8,29.89,West,275,0.0,0.0,82,0.00,,,0.01,Wunderground v.1.15,2013-05-08 01:05:00,
2013-05-07 21:10:00,56.0,50.6,29.89,West,275,0.0,0.0,82,0.00,,,0.01,Wunderground v.1.15,2013-05-08 01:10:00,
2013-05-07 21:15:00,55.7,50.3,29.89,West,275,0.0,0.0,82,0.00,,,0.01,Wunderground v.1.15,2013-05-08 01:15:00,
2013-05-07 21:20:00,55.5,50.4,29.89,West,275,0.0,0.0,83,0.00,,,0.01,Wunderground v.1.15,2013-05-08 01:20:00,
2013-05-07 21:30:00,55.3,50.5,29.90,West,275,0.0,0.0,84,0.00,,,0.01,Wunderground v.1.15,2013-05-08 01:30:00,
2013-05-07 21:35:00,55.3,50.5,29.90,West,275,0.0,0.0,84,0.00,,,0.01,Wunderground v.1.15,2013-05-08 01:35:00,
2013-05-07 21:40:00,55.3,50.5,29.90,West,275,0.0,0.0,84,0.00,,,0.01,Wunderground v.1.15,2013-05-08 01:40:00,
2013-05-07 21:45:00,55.1,50.4,29.90,West,275,0.0,0.0,84,0.00,,,0.01,Wunderground v.1.15,2013-05-08 01:45:00,
2013-05-07 21:50:00,55.1,50.7,29.90,West,275,0.0,0.0,85,0.00,,,0.01,Wunderground v.1.15,2013-05-08 01:50:00,
2013-05-07 21:55:00,54.9,50.5,29.90,West,275,0.0,0.0,85,0.00,,,0.01,Wunderground v.1.15,2013-05-08 01:55:00,
2013-05-07 22:05:00,54.4,50.3,29.91,West,275,0.0,0.0,86,0.00,,,0.01,Wunderground v.1.15,2013-05-08 02:05:00,
2013-05-07 22:15:00,54.0,49.9,29.91,West,275,0.0,0.0,86,0.00,,,0.01,Wunderground v.1.15,2013-05-08 02:15:00,
2013-05-07 22:20:00,53.8,49.7,29.91,West,275,0.0,0.0,86,0.00,,,0.01,Wunderground v.1.15,2013-05-08 02:20:00,
2013-05-07 22:25:00,53.5,49.7,29.91,West,275,0.0,0.0,87,0.00,,,0.01,Wunderground v.1.15,2013-05-08 02:25:00,
2013-05-07 22:30:00,53.2,49.4,29.91,West,275,0.0,0.0,87,0.00,,,0.01,Wunderground v.1.15,2013-05-08 02:30:00,
2013-05-07 22:35:00,52.9,49.4,29.91,West,275,0.0,0.0,88,0.00,,,0.01,Wunderground v.1.15,2013-05-08 02:35:00,
2013-05-07 22:40:00,52.6,49.4,29.91,West,275,0.0,0.0,89,0.00,,,0.01,Wunderground v.1.15,2013-05-08 02:40:00,
2013-05-07 22:45:00,52.4,49.3,29.91,West,275,0.0,0.0,89,0.00,,,0.01,Wunderground v.1.15,2013-05-08 02:45:00,
2013-05-07 22:50:00,52.2,49.4,29.91,West,275,0.0,0.0,90,0.00,,,0.01,Wunderground v.1.15,2013-05-08 02:50:00,
2013-05-07 22:55:00,52.0,49.2,29.91,West,275,0.0,0.0,90,0.00,,,0.01,Wunderground v.1.15,2013-05-08 02:55:00,
2013-05-07 23:00:00,51.8,49.3,29.91,West,275,0.0,0.0,91,0.00,,,0.01,Wunderground v.1.15,2013-05-08 03:00:00,
2013-05-07 23:05:00,51.7,49.2,29.91,West,275,0.0,0.0,91,0.00,,,0.01,Wunderground v.1.15,2013-05-08 03:05:00,
2013-05-07 23:10:00,51.5,49.0,29.91,West,275,0.0,0.0,91,0.00,,,0.01,Wunderground v.1.15,2013-05-08 03:10:00,
2013-05-07 23:15:00,51.4,49.2,29.91,West,275,0.0,0.0,92,0.00,,,0.01,Wunderground v.1.15,2013-05-08 03:15:00,
2013-05-07 23:20:00,51.3,49.1,29.91,West,275,0.0,0.0,92,0.00,,,0.01,Wunderground v.1.15,2013-05-08 03:20:00,
2013-05-07 23:25:00,51.1,48.9,29.91,West,275,0.0,0.0,92,0.00,,,0.01,Wunderground v.1.15,2013-05-08 03:25:00,
2013-05-07 23:30:00,51.0,48.8,29.91,West,275,0.0,0.0,92,0.00,,,0.01,Wunderground v.1.15,2013-05-08 03:30:00,
2013-05-07 23:35:00,50.9,48.9,29.91,West,275,0.0,0.0,93,0.00,,,0.01,Wunderground v.1.15,2013-05-08 03:35:00,
2013-05-07 23:40:00,50.8,48.8,29.91,West,275,0.0,0.0,93,0.00,,,0.01,Wunderground v.1.15,2013-05-08 03:40:00,
2013-05-07 23:45:00,50.7,48.7,29.91,West,275,0.0,0.0,93,0.00,,,0.01,Wunderground v.1.15,2013-05-08 03:45:00,
2013-05-07 23:50:00,50.6,48.7,29.91,West,275,0.0,0.0,93,0.00,,,0.01,Wunderground v.1.15,2013-05-08 03:50:00,
2013-05-07 23:55:00,50.5,48.6,29.91,West,275,0.0,0.0,93,0.00,,,0.01,Wunderground v.1.15,2013-05-08 03:55:00,